Time;durP1;ratioP1;P1;durP2;ratioP2;P2;SDS_P1;SDS_P2;PMS_P1;PMS_P2;Temp;Humidity;BMP_temperature;BMP_pressure;BME280_temperature;BME280_humidity;BME280_pressure;Samples;Min_cycle;Max_cycle;Signal;HPM_P1;HPM_P2
2021/12/21 00:00:00;;;;;;;30.13;16.90;;;-2.80;99.90;;;;;;4968752;28;20064;-79
2021/12/21 00:02:26;;;;;;;17.20;9.73;;;-2.90;99.90;;;;;;4982231;28;20042;-80
2021/12/21 00:04:51;;;;;;;13.00;7.05;;;-2.90;99.90;;;;;;4968441;28;20106;-80
2021/12/21 00:07:17;;;;;;;23.90;14.00;;;-2.90;99.90;;;;;;4983860;28;20046;-79
2021/12/21 00:09:43;;;;;;;21.50;14.75;;;-2.90;99.90;;;;;;4967168;28;20059;-79
2021/12/21 00:12:12;;;;;;;20.27;12.40;;;-3.00;99.90;;;;;;4968262;28;20034;-79
2021/12/21 00:14:55;;;;;;;20.63;11.18;;;-3.00;99.90;;;;;;4951310;28;20046;-79
2021/12/21 00:20:22;;;;;;;19.15;9.70;;;-3.00;99.90;;;;;;4967911;28;20561;-80
2021/12/21 00:23:18;;;;;;;19.50;10.02;;;-3.00;99.90;;;;;;4951204;28;20047;-79
2021/12/21 00:25:39;;;;;;;20.75;8.75;;;-3.00;99.90;;;;;;4967413;28;20051;-82
2021/12/21 00:28:05;;;;;;;17.40;9.88;;;-3.00;99.90;;;;;;4967653;28;20053;-82
2021/12/21 00:30:31;;;;;;;22.08;9.32;;;-3.00;99.90;;;;;;4970584;28;20050;-79
2021/12/21 00:32:57;;;;;;;22.27;11.38;;;-3.00;99.90;;;;;;4971657;28;20479;-79
2021/12/21 00:35:23;;;;;;;21.80;10.43;;;-3.00;99.90;;;;;;4987669;28;20426;-79
2021/12/21 00:37:48;;;;;;;23.92;10.98;;;-3.00;99.90;;;;;;4971066;28;20047;-79
2021/12/21 00:40:14;;;;;;;19.50;10.85;;;-3.00;99.90;;;;;;4987811;28;20050;-79
2021/12/21 00:42:41;;;;;;;21.42;11.05;;;-3.00;99.90;;;;;;4971444;28;20046;-79
2021/12/21 00:45:07;;;;;;;22.02;11.00;;;-3.00;99.90;;;;;;4971577;28;20627;-79
2021/12/21 00:47:35;;;;;;;21.38;11.10;;;-3.00;99.90;;;;;;4986646;28;20042;-79
2021/12/21 00:50:03;;;;;;;27.05;11.40;;;-3.00;99.90;;;;;;4987681;28;20680;-80
2021/12/21 00:52:29;;;;;;;24.92;10.93;;;-3.00;99.90;;;;;;4970767;28;20054;-79
2021/12/21 00:54:56;;;;;;;23.95;11.88;;;-3.00;99.90;;;;;;4956188;28;20050;-79
2021/12/21 00:57:22;;;;;;;19.52;10.13;;;-3.00;99.90;;;;;;4969716;28;20047;-79
2021/12/21 00:59:47;;;;;;;24.15;12.23;;;-3.00;99.90;;;;;;4971581;28;20056;-79
2021/12/21 01:02:14;;;;;;;28.83;11.27;;;-3.10;99.90;;;;;;4970516;28;20471;-80
2021/12/21 01:04:44;;;;;;;21.92;10.25;;;-3.10;99.90;;;;;;4986321;28;20101;-80
2021/12/21 01:10:22;;;;;;;17.52;9.00;;;-3.10;99.90;;;;;;4970930;28;20483;-79
2021/12/21 01:15:25;;;;;;;32.10;12.18;;;-3.10;99.90;;;;;;4971712;28;20106;-79
2021/12/21 01:18:03;;;;;;;39.03;14.32;;;-3.20;99.90;;;;;;4970914;28;20053;-80
2021/12/21 01:20:40;;;;;;;30.75;14.55;;;-3.20;99.90;;;;;;4970412;28;20134;-80
2021/12/21 01:23:48;;;;;;;30.08;15.02;;;-3.20;99.90;;;;;;4955153;28;20137;-80
2021/12/21 01:26:28;;;;;;;27.13;14.43;;;-3.20;99.90;;;;;;4970277;28;20201;-79
2021/12/21 01:29:12;;;;;;;26.40;14.77;;;-3.20;99.90;;;;;;4971166;28;20070;-79
2021/12/21 01:31:50;;;;;;;;;;;-3.20;99.90;;;;;;4954599;28;20082;-79
2021/12/21 01:36:49;;;;;;;31.60;14.63;;;-3.20;99.90;;;;;;4971142;28;20438;-80
2021/12/21 01:39:49;;;;;;;27.80;14.15;;;-3.20;99.90;;;;;;4969568;28;20065;-80
2021/12/21 01:42:10;;;;;;;24.63;12.70;;;-3.30;99.90;;;;;;4969172;28;20051;-80
2021/12/21 01:50:05;;;;;;;34.05;14.43;;;-3.30;99.90;;;;;;4970423;28;20051;-79
2021/12/21 01:52:30;;;;;;;22.25;12.32;;;-3.30;99.90;;;;;;4970033;28;20046;-80
2021/12/21 01:54:56;;;;;;;23.65;12.40;;;-3.20;99.90;;;;;;4969967;28;20046;-80
2021/12/21 01:57:23;;;;;;;27.15;12.80;;;-3.20;99.90;;;;;;4986005;28;20139;-80
2021/12/21 01:59:49;;;;;;;29.52;12.23;;;-3.30;99.90;;;;;;4970920;28;20100;-81
2021/12/21 02:02:17;;;;;;;24.65;11.90;;;-3.30;99.90;;;;;;4968631;28;20110;-81
2021/12/21 02:04:43;;;;;;;23.73;12.13;;;-3.30;99.90;;;;;;4971349;28;20443;-80
2021/12/21 02:07:10;;;;;;;31.15;13.18;;;-3.30;99.90;;;;;;4954045;28;20491;-80
2021/12/21 02:09:37;;;;;;;25.45;11.70;;;-3.30;99.90;;;;;;4969539;28;20051;-80
2021/12/21 02:12:08;;;;;;;34.30;12.90;;;-3.30;99.90;;;;;;4954374;28;20089;-81
2021/12/21 02:14:35;;;;;;;26.23;12.48;;;-3.40;99.90;;;;;;4953397;28;20407;-81
2021/12/21 02:19:41;;;;;;;27.02;12.25;;;-3.40;99.90;;;;;;4969901;28;20904;-81
2021/12/21 02:22:12;;;;;;;21.27;11.50;;;-3.40;99.90;;;;;;4953402;28;20034;-81
2021/12/21 02:24:56;;;;;;;23.40;10.75;;;-3.50;99.90;;;;;;4986053;28;20454;-81
2021/12/21 02:27:28;;;;;;;17.02;9.00;;;-3.40;99.90;;;;;;4953273;28;20054;-81
2021/12/21 02:29:54;;;;;;;15.52;7.10;;;-3.50;99.90;;;;;;4969942;28;20110;-81
2021/12/21 02:32:22;;;;;;;12.63;7.38;;;-3.50;99.90;;;;;;4968653;28;20545;-82
2021/12/21 02:34:47;;;;;;;12.95;7.13;;;-3.50;99.90;;;;;;4970031;28;20049;-81
2021/12/21 02:37:13;;;;;;;13.45;5.85;;;-3.50;99.90;;;;;;4985148;28;20050;-81
2021/12/21 02:39:39;;;;;;;9.18;5.85;;;-3.50;99.90;;;;;;4985082;28;20054;-81
2021/12/21 02:42:06;;;;;;;15.43;7.68;;;-3.60;99.90;;;;;;4985432;28;20082;-80
2021/12/21 02:44:32;;;;;;;15.45;7.82;;;-3.60;99.90;;;;;;4968061;28;20067;-82
2021/12/21 02:46:59;;;;;;;17.98;9.05;;;-3.60;99.90;;;;;;4968959;28;20051;-82
2021/12/21 02:49:25;;;;;;;17.27;9.30;;;-3.60;99.90;;;;;;4968982;28;20522;-81
2021/12/21 02:51:51;;;;;;;21.48;10.27;;;-3.60;99.90;;;;;;4968857;28;20078;-81
2021/12/21 02:54:18;;;;;;;19.98;10.45;;;-3.60;99.90;;;;;;4985368;28;20146;-81
2021/12/21 02:56:44;;;;;;;24.23;11.30;;;-3.60;99.90;;;;;;4952332;28;20051;-80
2021/12/21 02:59:10;;;;;;;26.08;11.35;;;-3.60;99.90;;;;;;4972443;28;20062;-81
2021/12/21 03:01:37;;;;;;;32.38;12.68;;;-3.60;99.90;;;;;;4955459;28;20481;-81
2021/12/21 03:04:04;;;;;;;18.48;10.48;;;-3.60;99.90;;;;;;4987421;28;20054;-81
2021/12/21 03:07:16;;;;;;;25.92;12.20;;;-3.60;99.90;;;;;;4971950;28;20505;-81
2021/12/21 03:09:41;;;;;;;24.20;11.23;;;-3.60;99.90;;;;;;4972026;28;20097;-81
2021/12/21 03:12:32;;;;;;;21.98;10.98;;;-3.60;99.90;;;;;;4987756;28;20520;-81
2021/12/21 03:14:58;;;;;;;19.13;9.63;;;-3.60;99.90;;;;;;4972602;28;20050;-81
2021/12/21 03:17:24;;;;;;;24.08;10.85;;;-3.70;99.90;;;;;;4986889;28;20190;-81
2021/12/21 03:19:49;;;;;;;17.90;9.40;;;-3.70;99.90;;;;;;4987778;28;20520;-81
2021/12/21 03:22:15;;;;;;;15.98;9.93;;;-3.70;99.90;;;;;;4971963;28;20035;-81
2021/12/21 03:24:43;;;;;;;16.92;8.80;;;-3.70;99.90;;;;;;4971667;28;20141;-81
2021/12/21 03:27:10;;;;;;;17.40;7.65;;;-3.80;99.90;;;;;;4971863;28;20053;-81
2021/12/21 03:29:36;;;;;;;18.20;8.07;;;-3.80;99.90;;;;;;4971412;28;20133;-81
2021/12/21 03:32:02;;;;;;;14.93;8.40;;;-3.80;99.90;;;;;;4986863;28;20038;-81
2021/12/21 03:34:28;;;;;;;16.10;7.82;;;-3.80;99.90;;;;;;4971149;28;20061;-81
2021/12/21 03:36:54;;;;;;;20.40;9.63;;;-3.80;99.90;;;;;;4988077;28;20049;-80
2021/12/21 03:39:21;;;;;;;23.58;9.82;;;-3.80;99.90;;;;;;4970687;28;20043;-80
2021/12/21 03:41:51;;;;;;;19.00;9.02;;;-3.90;99.90;;;;;;4971477;28;20081;-80
2021/12/21 03:44:19;;;;;;;24.45;10.15;;;-3.80;99.90;;;;;;4987991;28;20120;-80
2021/12/21 03:46:48;;;;;;;21.60;9.50;;;-3.90;99.90;;;;;;4970444;28;20482;-80
2021/12/21 03:51:57;;;;;;;23.08;9.77;;;-3.80;99.90;;;;;;4971736;28;20501;-80
2021/12/21 03:54:23;;;;;;;22.50;10.85;;;-3.90;99.90;;;;;;4970347;28;20045;-80
2021/12/21 03:56:51;;;;;;;29.52;12.98;;;-3.80;99.90;;;;;;4971665;28;20046;-80
2021/12/21 03:59:18;;;;;;;29.85;11.85;;;-3.80;99.90;;;;;;4970441;28;20057;-80
2021/12/21 04:01:44;;;;;;;19.52;9.30;;;-3.90;99.90;;;;;;4987133;28;20050;-81
2021/12/21 04:04:10;;;;;;;15.95;8.25;;;-3.90;99.90;;;;;;4970445;28;20057;-80
2021/12/21 04:06:36;;;;;;;15.93;7.32;;;-3.90;99.90;;;;;;4970974;28;20047;-80
2021/12/21 04:09:05;;;;;;;18.52;8.55;;;-3.90;99.90;;;;;;4987119;28;20085;-80
2021/12/21 04:11:31;;;;;;;19.65;11.20;;;-4.00;99.90;;;;;;4987192;28;20491;-80
2021/12/21 04:13:58;;;;;;;30.45;11.07;;;-4.00;99.90;;;;;;4986790;28;20787;-80
2021/12/21 04:16:24;;;;;;;22.58;10.85;;;-4.00;99.90;;;;;;4986722;28;20038;-80
2021/12/21 04:18:50;;;;;;;19.88;11.02;;;-4.00;99.90;;;;;;4986820;28;20054;-80
2021/12/21 04:21:15;;;;;;;25.13;12.30;;;-4.00;99.90;;;;;;4986900;28;20105;-80
2021/12/21 04:23:43;;;;;;;30.13;13.75;;;-4.00;99.90;;;;;;4970936;28;20418;-80
2021/12/21 04:26:11;;;;;;;25.98;12.50;;;-4.10;99.90;;;;;;4971480;28;20050;-80
2021/12/21 04:28:37;;;;;;;27.58;12.20;;;-4.10;99.90;;;;;;4953631;28;20077;-80
2021/12/21 04:31:04;;;;;;;22.05;11.10;;;-4.10;99.90;;;;;;4987593;28;20066;-80
2021/12/21 04:33:30;;;;;;;28.13;13.57;;;-4.20;99.90;;;;;;4969652;28;20062;-80
2021/12/21 04:35:56;;;;;;;29.90;12.82;;;-4.20;99.90;;;;;;4971278;28;20050;-80
2021/12/21 04:38:25;;;;;;;29.38;12.50;;;-4.20;99.90;;;;;;4986588;28;20073;-79
2021/12/21 04:40:58;;;;;;;22.25;10.27;;;-4.20;99.90;;;;;;4971864;28;20083;-80
2021/12/21 04:43:24;;;;;;;21.58;10.90;;;-4.20;99.90;;;;;;4986070;28;20042;-80
2021/12/21 04:45:50;;;;;;;25.08;11.77;;;-4.20;99.90;;;;;;4971651;28;20414;-80
2021/12/21 04:48:16;;;;;;;27.25;10.77;;;-4.20;99.90;;;;;;4970598;28;20038;-82
2021/12/21 04:50:42;;;;;;;27.77;11.63;;;-4.10;99.90;;;;;;4970662;28;20058;-80
2021/12/21 04:53:08;;;;;;;31.15;13.35;;;-4.10;99.90;;;;;;4971548;28;20045;-80
2021/12/21 04:55:34;;;;;;;19.42;11.55;;;-4.10;99.90;;;;;;4987212;28;20489;-80
2021/12/21 04:58:00;;;;;;;18.50;10.43;;;-4.10;99.90;;;;;;4983257;28;20467;-80
2021/12/21 05:00:26;;;;;;;21.52;10.52;;;-4.00;99.90;;;;;;4967521;28;20047;-80
2021/12/21 05:02:52;;;;;;;18.20;10.25;;;-4.10;99.90;;;;;;4951346;28;20129;-81
2021/12/21 05:05:18;;;;;;;20.05;10.43;;;-4.00;99.90;;;;;;4967149;28;20129;-81
2021/12/21 05:07:48;;;;;;;20.30;10.25;;;-4.00;99.90;;;;;;4984076;28;20133;-80
2021/12/21 05:10:14;;;;;;;21.23;9.57;;;-4.00;99.90;;;;;;4983854;28;20138;-81
2021/12/21 05:12:40;;;;;;;19.65;9.13;;;-4.00;99.90;;;;;;4967136;28;20530;-81
2021/12/21 05:15:07;;;;;;;18.90;9.60;;;-4.10;99.90;;;;;;4984302;28;20047;-80
2021/12/21 05:17:33;;;;;;;21.23;9.63;;;-4.10;99.90;;;;;;4985379;28;20783;-80
2021/12/21 05:19:58;;;;;;;18.27;8.43;;;-4.10;99.90;;;;;;4971536;28;20048;-80
2021/12/21 05:22:24;;;;;;;16.95;9.43;;;-4.10;99.90;;;;;;4970954;28;20043;-81
2021/12/21 05:24:51;;;;;;;19.85;10.55;;;-4.10;99.90;;;;;;4986806;28;20078;-80
2021/12/21 05:27:17;;;;;;;15.75;9.05;;;-4.10;99.90;;;;;;4970667;28;20042;-80
2021/12/21 05:29:43;;;;;;;18.98;9.70;;;-4.00;99.90;;;;;;4971066;28;20061;-81
2021/12/21 05:32:09;;;;;;;21.55;9.98;;;-4.10;99.90;;;;;;4986142;28;20051;-80
2021/12/21 05:34:34;;;;;;;20.15;10.57;;;-4.10;99.90;;;;;;4989795;28;20576;-80
2021/12/21 05:37:05;;;;;;;18.55;10.32;;;-4.10;99.90;;;;;;4998928;28;20039;-80
2021/12/21 05:39:39;;;;;;;19.10;10.02;;;-4.00;99.90;;;;;;4978859;28;20051;-80
2021/12/21 05:42:06;;;;;;;19.58;10.02;;;-4.10;99.90;;;;;;4989939;28;20054;-80
2021/12/21 05:44:32;;;;;;;17.17;9.23;;;-4.10;99.90;;;;;;4990041;28;20050;-80
2021/12/21 05:46:58;;;;;;;17.85;9.77;;;-4.20;99.90;;;;;;4988307;28;20141;-80
2021/12/21 05:49:24;;;;;;;16.38;9.07;;;-4.20;99.90;;;;;;4973650;28;20141;-80
2021/12/21 05:51:50;;;;;;;18.00;9.10;;;-4.30;99.90;;;;;;4989649;28;20073;-81
2021/12/21 05:54:18;;;;;;;17.08;9.07;;;-4.40;99.90;;;;;;4989037;28;20077;-81
2021/12/21 05:56:44;;;;;;;19.60;9.65;;;-4.40;99.90;;;;;;4989720;28;20094;-80
2021/12/21 05:59:10;;;;;;;18.38;10.25;;;-4.40;99.90;;;;;;4979613;28;20093;-80
2021/12/21 06:01:36;;;;;;;18.95;9.65;;;-4.50;99.90;;;;;;4961226;28;20679;-79
2021/12/21 06:04:03;;;;;;;16.13;8.95;;;-4.40;99.90;;;;;;5003565;28;20046;-80
2021/12/21 06:06:31;;;;;;;20.15;8.90;;;-4.40;99.90;;;;;;5001933;28;20566;-80
2021/12/21 06:09:00;;;;;;;22.35;9.57;;;-4.40;99.90;;;;;;4964826;28;20039;-80
2021/12/21 06:11:25;;;;;;;19.30;9.02;;;-4.30;99.90;;;;;;4969944;28;20046;-80
2021/12/21 06:22:45;;;;;;;19.98;10.00;;;-4.20;99.90;;;;;;4975048;28;20062;-81
2021/12/21 06:27:21;;;;;;;17.65;9.40;;;-4.20;99.90;;;;;;5002526;28;20047;-80
2021/12/21 06:29:46;;;;;;;18.05;9.05;;;-4.20;99.90;;;;;;4976972;28;20126;-80
2021/12/21 06:32:12;;;;;;;16.08;8.68;;;-4.20;99.90;;;;;;4978201;28;20228;-80
2021/12/21 06:34:38;;;;;;;20.10;8.43;;;-4.20;99.90;;;;;;5001926;28;20057;-81
2021/12/21 06:37:04;;;;;;;20.02;9.60;;;-4.20;99.90;;;;;;4977507;28;20046;-80
2021/12/21 06:39:33;;;;;;;23.60;10.10;;;-4.20;99.90;;;;;;4970359;28;20780;-81
2021/12/21 06:41:59;;;;;;;17.65;8.25;;;-4.20;99.90;;;;;;4961653;28;20039;-81
2021/12/21 06:44:25;;;;;;;22.00;8.98;;;-4.20;99.90;;;;;;4960772;28;20054;-80
2021/12/21 06:51:09;;;;;;;20.23;9.10;;;-4.20;99.90;;;;;;4978477;28;20051;-80
2021/12/21 06:52:40;;;;;;;17.10;8.40;;;-4.20;99.90;;;;;;4977473;28;20129;-80
2021/12/21 06:55:07;;;;;;;18.30;9.50;;;-4.20;99.90;;;;;;4961165;28;20055;-80
2021/12/21 06:57:34;;;;;;;18.92;8.15;;;-4.20;99.90;;;;;;4976865;28;20652;-81
2021/12/21 07:00:00;;;;;;;20.17;8.27;;;-4.20;99.90;;;;;;4987010;28;20045;-81
2021/12/21 07:02:26;;;;;;;21.60;8.95;;;-4.20;99.90;;;;;;4975695;28;20588;-80
2021/12/21 07:04:52;;;;;;;19.13;8.75;;;-4.20;99.90;;;;;;4962125;28;20060;-80
2021/12/21 07:07:18;;;;;;;15.02;8.77;;;-4.20;99.90;;;;;;4977188;28;20035;-81
2021/12/21 07:09:48;;;;;;;18.73;8.68;;;-4.30;99.90;;;;;;4976509;28;20097;-81
2021/12/21 07:12:30;;;;;;;22.48;9.68;;;-4.20;99.90;;;;;;4962257;28;20489;-80
2021/12/21 07:20:24;;;;;;;16.52;8.52;;;-4.30;99.90;;;;;;4978236;28;20403;-80
2021/12/21 07:22:50;;;;;;;19.40;8.98;;;-4.30;99.90;;;;;;4976089;28;20030;-81
2021/12/21 07:25:16;;;;;;;17.00;9.27;;;-4.30;99.90;;;;;;4961282;28;20061;-80
2021/12/21 07:27:41;;;;;;;21.45;8.07;;;-4.40;99.90;;;;;;4961033;28;20480;-81
2021/12/21 07:30:08;;;;;;;17.67;9.93;;;-4.30;99.90;;;;;;4976767;28;20038;-81
2021/12/21 07:32:34;;;;;;;24.58;8.88;;;-4.30;99.90;;;;;;4960079;28;20413;-80
2021/12/21 07:34:59;;;;;;;17.80;9.23;;;-4.30;99.90;;;;;;5001894;28;20479;-80
2021/12/21 07:37:25;;;;;;;20.27;9.40;;;-4.40;99.90;;;;;;4975591;28;20101;-80
2021/12/21 07:39:52;;;;;;;19.05;9.10;;;-4.40;99.90;;;;;;4976279;28;20102;-80
2021/12/21 07:42:19;;;;;;;18.30;8.68;;;-4.40;99.90;;;;;;5001196;28;20049;-81
2021/12/21 07:44:46;;;;;;;22.52;8.68;;;-4.40;99.90;;;;;;4976364;28;20410;-81
2021/12/21 07:47:11;;;;;;;19.75;9.75;;;-4.40;99.90;;;;;;4976699;28;20046;-81
2021/12/21 07:49:37;;;;;;;21.45;9.32;;;-4.40;99.90;;;;;;4960713;28;20042;-81
2021/12/21 07:52:07;;;;;;;17.10;9.38;;;-4.40;99.90;;;;;;4959482;28;20105;-81
2021/12/21 07:54:33;;;;;;;14.80;8.93;;;-4.40;99.90;;;;;;4961634;28;20265;-80
2021/12/21 07:56:59;;;;;;;20.63;9.20;;;-4.30;99.90;;;;;;4985327;28;20043;-81
2021/12/21 07:59:25;;;;;;;16.90;8.82;;;-4.40;99.90;;;;;;4977884;28;20060;-81
2021/12/21 08:01:52;;;;;;;23.52;9.88;;;-4.30;99.90;;;;;;4978406;28;20038;-81
2021/12/21 08:04:21;;;;;;;17.95;8.77;;;-4.40;99.90;;;;;;4963578;28;20490;-82
2021/12/21 08:06:49;;;;;;;19.90;9.73;;;-4.30;99.90;;;;;;4980196;28;20042;-81
2021/12/21 08:09:15;;;;;;;18.60;9.07;;;-4.30;99.90;;;;;;5003760;28;20053;-81
2021/12/21 08:14:06;;;;;;;19.98;9.20;;;-4.30;99.90;;;;;;4979802;28;20115;-81
2021/12/21 08:16:33;;;;;;;21.00;9.75;;;-4.20;99.90;;;;;;5004286;28;20038;-81
2021/12/21 08:18:59;;;;;;;19.92;8.90;;;-4.20;99.90;;;;;;4999527;28;20525;-82
2021/12/21 08:21:26;;;;;;;18.95;9.23;;;-4.20;99.90;;;;;;4972372;28;20045;-81
2021/12/21 08:23:52;;;;;;;29.67;10.68;;;-4.20;99.90;;;;;;4990556;28;20041;-81
2021/12/21 08:26:18;;;;;;;17.17;9.27;;;-4.20;99.90;;;;;;4983371;28;20505;-81
2021/12/21 08:28:44;;;;;;;16.67;9.38;;;-4.20;99.90;;;;;;4962683;28;20075;-81
2021/12/21 08:31:12;;;;;;;17.90;8.57;;;-4.20;99.90;;;;;;4980605;28;20064;-81
2021/12/21 08:33:39;;;;;;;18.08;8.63;;;-4.10;99.90;;;;;;4979872;28;20054;-81
2021/12/21 08:36:06;;;;;;;19.13;9.25;;;-4.10;99.90;;;;;;4978573;28;20046;-81
2021/12/21 08:38:32;;;;;;;21.63;9.93;;;-4.10;99.90;;;;;;4964217;28;20121;-81
2021/12/21 08:41:00;;;;;;;22.38;9.48;;;-4.10;99.90;;;;;;4981818;28;20053;-81
2021/12/21 08:43:28;;;;;;;18.88;9.38;;;-4.10;99.90;;;;;;4977764;28;20497;-81
2021/12/21 08:45:56;;;;;;;21.95;10.00;;;-4.10;99.90;;;;;;4981517;28;20493;-81
2021/12/21 08:48:23;;;;;;;27.65;10.68;;;-4.10;99.90;;;;;;4961502;28;20548;-81
2021/12/21 08:50:53;;;;;;;21.23;10.40;;;-4.00;99.90;;;;;;4982263;28;20052;-81
2021/12/21 08:53:19;;;;;;;22.63;11.88;;;-4.00;99.90;;;;;;4981079;28;20080;-79
2021/12/21 08:55:45;;;;;;;23.17;12.77;;;-3.90;99.90;;;;;;4968948;28;20046;-80
2021/12/21 08:58:12;;;;;;;31.85;11.98;;;-3.80;99.90;;;;;;4983727;28;20060;-81
2021/12/21 09:00:38;;;;;;;24.25;12.18;;;-3.80;99.90;;;;;;4974259;28;20054;-81
2021/12/21 09:03:05;;;;;;;25.42;11.02;;;-3.80;99.90;;;;;;4973418;28;20046;-81
2021/12/21 09:05:31;;;;;;;22.10;11.82;;;-3.70;99.90;;;;;;4974287;28;20046;-81
2021/12/21 09:07:59;;;;;;;21.13;12.25;;;-3.70;99.90;;;;;;4991016;28;20058;-82
2021/12/21 09:10:26;;;;;;;17.42;11.70;;;-3.70;99.90;;;;;;4973153;28;20442;-82
2021/12/21 09:12:52;;;;;;;24.95;11.57;;;-3.60;99.90;;;;;;4974373;28;20042;-82
2021/12/21 09:15:20;;;;;;;20.23;11.18;;;-3.60;99.90;;;;;;4973617;28;20162;-82
2021/12/21 09:17:47;;;;;;;23.27;11.73;;;-3.50;99.90;;;;;;4968097;28;20045;-82
2021/12/21 09:20:20;;;;;;;27.55;11.73;;;-3.40;99.90;;;;;;4963775;28;20050;-82
2021/12/21 09:22:47;;;;;;;26.48;12.55;;;-3.40;99.90;;;;;;4985671;28;20410;-81
2021/12/21 09:25:13;;;;;;;28.38;12.65;;;-3.30;99.90;;;;;;4966098;28;20046;-83
2021/12/21 09:27:39;;;;;;;20.52;10.95;;;-3.20;99.90;;;;;;4957517;28;20509;-83
2021/12/21 09:30:08;;;;;;;18.40;12.00;;;-3.20;99.90;;;;;;4999376;28;20043;-82
2021/12/21 09:32:34;;;;;;;20.42;12.88;;;-3.10;99.90;;;;;;4991859;28;20092;-84
2021/12/21 09:34:59;;;;;;;23.88;12.68;;;-3.00;99.90;;;;;;4993183;28;20077;-81
2021/12/21 09:37:26;;;;;;;25.08;12.35;;;-3.00;99.90;;;;;;4992301;28;20125;-82
2021/12/21 09:39:54;;;;;;;25.77;13.55;;;-2.90;99.90;;;;;;4973315;28;20049;-82
2021/12/21 09:42:26;;;;;;;22.13;12.32;;;-2.80;99.90;;;;;;4966461;28;20121;-81
2021/12/21 09:44:53;;;;;;;22.83;12.20;;;-2.70;99.90;;;;;;4972731;28;20096;-82
2021/12/21 09:47:19;;;;;;;23.45;13.27;;;-2.70;99.90;;;;;;4956035;28;20054;-82
2021/12/21 09:49:46;;;;;;;25.17;13.60;;;-2.60;99.90;;;;;;4990159;28;20042;-82
2021/12/21 09:52:21;;;;;;;30.20;15.68;;;-2.60;99.90;;;;;;5005550;28;20057;-82
2021/12/21 09:54:48;;;;;;;37.10;14.98;;;-2.60;99.90;;;;;;5006742;28;20048;-82
2021/12/21 09:57:16;;;;;;;31.60;16.20;;;-2.50;99.90;;;;;;4973114;28;20521;-83
2021/12/21 09:59:44;;;;;;;25.88;13.32;;;-1.10;99.90;;;;;;4957157;28;20456;-82
2021/12/21 10:02:10;;;;;;;28.98;14.32;;;-2.40;99.90;;;;;;4955562;28;20043;-82
2021/12/21 10:04:47;;;;;;;31.35;13.95;;;-2.30;99.90;;;;;;4957310;28;20054;-82
2021/12/21 10:07:14;;;;;;;23.70;13.50;;;-2.20;99.90;;;;;;5005617;28;20046;-82
2021/12/21 10:09:43;;;;;;;29.52;13.57;;;-2.20;99.90;;;;;;4973503;28;20053;-82
2021/12/21 10:12:13;;;;;;;27.05;13.93;;;-2.10;99.90;;;;;;5006154;28;20124;-82
2021/12/21 10:14:40;;;;;;;31.55;13.77;;;-2.00;99.90;;;;;;5005065;28;20498;-82
2021/12/21 10:17:08;;;;;;;27.25;13.07;;;-1.90;99.90;;;;;;5005030;28;20054;-82
2021/12/21 10:19:35;;;;;;;27.45;13.98;;;-1.80;99.90;;;;;;4965219;28;20573;-81
2021/12/21 10:22:13;;;;;;;31.90;14.32;;;-1.60;99.90;;;;;;4972138;28;20494;-82
2021/12/21 10:24:46;;;;;;;23.35;13.70;;;-1.50;99.90;;;;;;4972632;28;20125;-82
2021/12/21 10:27:13;;;;;;;25.88;12.10;;;-1.40;99.90;;;;;;4972545;28;20081;-82
2021/12/21 10:29:42;;;;;;;27.38;12.70;;;-1.30;99.90;;;;;;4956317;28;20039;-83
2021/12/21 10:32:17;;;;;;;21.48;12.77;;;-1.10;99.90;;;;;;4972615;28;20109;-83
2021/12/21 10:34:55;;;;;;;22.38;13.63;;;-1.20;99.90;;;;;;4956617;28;20049;-83
2021/12/21 10:37:25;;;;;;;25.23;13.10;;;-1.10;99.90;;;;;;4972401;28;20058;-83
2021/12/21 10:40:11;;;;;;;25.25;12.93;;;-1.00;99.90;;;;;;4973217;28;20506;-83
2021/12/21 10:42:45;;;;;;;21.80;12.55;;;-0.90;99.90;;;;;;4971681;28;20046;-83
2021/12/21 10:45:10;;;;;;;24.73;11.45;;;-0.80;99.90;;;;;;4975071;28;20387;-82
2021/12/21 10:47:37;;;;;;;23.40;12.88;;;0.10;99.90;;;;;;4955691;28;20049;-82
2021/12/21 10:50:05;;;;;;;22.75;12.55;;;-0.70;99.90;;;;;;4972343;28;20129;-82
2021/12/21 10:52:31;;;;;;;22.30;11.73;;;-0.60;99.90;;;;;;4971895;28;20056;-83
2021/12/21 10:54:57;;;;;;;21.52;12.35;;;-0.60;99.90;;;;;;4956273;28;20129;-83
2021/12/21 10:57:32;;;;;;;26.95;13.02;;;-0.60;99.90;;;;;;4955695;28;20046;-83
2021/12/21 11:00:01;;;;;;;25.17;11.25;;;-0.50;99.90;;;;;;4956993;28;20138;-83
2021/12/21 11:02:31;;;;;;;23.52;10.77;;;-0.40;99.90;;;;;;4970380;28;20046;-83
2021/12/21 11:05:01;;;;;;;19.58;10.43;;;-0.30;99.90;;;;;;4972863;28;20046;-83
2021/12/21 11:10:11;;;;;;;19.17;10.00;;;-0.50;99.90;;;;;;4972592;28;20486;-83
2021/12/21 11:12:43;;;;;;;28.98;9.40;;;-0.10;99.90;;;;;;4988196;28;20046;-83
2021/12/21 11:15:10;;;;;;;18.48;9.38;;;-0.10;99.90;;;;;;4988943;28;20046;-83
2021/12/21 11:17:37;;;;;;;19.40;9.50;;;0.00;99.90;;;;;;4970642;28;20414;-84
2021/12/21 11:20:04;;;;;;;16.00;8.35;;;0.00;99.90;;;;;;4972458;28;20046;-84
2021/12/21 11:22:32;;;;;;;17.98;8.43;;;0.10;99.90;;;;;;4988031;28;20398;-83
2021/12/21 11:24:59;;;;;;;17.00;7.78;;;0.20;99.90;;;;;;4987425;28;20042;-83
2021/12/21 11:27:28;;;;;;;17.00;7.95;;;0.20;99.90;;;;;;4987897;28;20046;-83
2021/12/21 11:29:58;;;;;;;18.08;7.32;;;0.20;99.90;;;;;;4972266;28;20042;-83
2021/12/21 11:32:27;;;;;;;15.50;7.18;;;1.20;99.90;;;;;;4987213;28;20100;-83
2021/12/21 11:37:37;;;;;;;13.50;7.00;;;0.50;99.90;;;;;;4970502;28;20072;-83
2021/12/21 11:40:04;;;;;;;17.45;6.57;;;0.40;99.90;;;;;;4972179;28;20498;-83
2021/12/21 11:42:40;;;;;;;15.48;6.70;;;0.50;99.90;;;;;;4970772;28;20494;-84
2021/12/21 11:45:12;;;;;;;19.27;7.25;;;0.60;99.90;;;;;;4971401;28;20043;-84
2021/12/21 11:47:53;;;;;;;16.25;7.82;;;0.60;99.90;;;;;;4980447;28;20249;-84
2021/12/21 11:50:19;;;;;;;15.98;6.82;;;0.70;99.90;;;;;;4974607;28;20123;-84
2021/12/21 11:52:48;;;;;;;13.70;6.60;;;0.70;99.90;;;;;;4974566;28;20050;-84
2021/12/21 11:55:16;;;;;;;11.85;6.55;;;0.70;99.90;;;;;;4974998;28;20127;-84
2021/12/21 11:57:51;;;;;;;11.40;6.53;;;0.70;99.90;;;;;;4975025;28;20050;-84
2021/12/21 12:00:22;;;;;;;10.90;6.00;;;0.80;99.90;;;;;;4989978;28;20172;-84
2021/12/21 12:02:49;;;;;;;15.20;6.47;;;0.90;99.90;;;;;;4990053;28;20124;-84
2021/12/21 12:05:20;;;;;;;12.35;6.20;;;0.90;99.90;;;;;;4990226;28;20556;-83
2021/12/21 12:07:46;;;;;;;17.60;6.50;;;1.00;99.90;;;;;;4990571;28;20041;-84
2021/12/21 12:10:15;;;;;;;12.57;6.32;;;1.10;99.90;;;;;;4991604;28;20095;-84
2021/12/21 12:12:41;;;;;;;12.32;5.57;;;1.10;99.90;;;;;;4973823;28;20088;-84
2021/12/21 12:15:09;;;;;;;11.07;6.25;;;1.10;99.90;;;;;;4974739;28;20052;-83
2021/12/21 12:17:50;;;;;;;15.43;6.28;;;1.20;99.90;;;;;;4989548;28;20084;-84
2021/12/21 12:20:25;;;;;;;12.35;5.65;;;1.30;99.90;;;;;;4973647;28;20480;-83
2021/12/21 12:23:01;;;;;;;11.52;6.20;;;1.30;99.90;;;;;;4974766;28;20072;-83
2021/12/21 12:25:26;;;;;;;12.45;5.53;;;1.40;99.90;;;;;;4977912;28;20060;-83
2021/12/21 12:27:54;;;;;;;15.77;5.88;;;1.40;99.90;;;;;;4980696;28;20042;-84
2021/12/21 12:30:22;;;;;;;15.05;5.95;;;1.40;99.90;;;;;;4980309;28;20045;-84
2021/12/21 12:32:55;;;;;;;18.67;6.55;;;1.40;99.90;;;;;;4980195;28;20050;-83
2021/12/21 12:35:25;;;;;;;16.33;6.18;;;1.40;99.90;;;;;;4996163;28;20053;-83
2021/12/21 12:38:01;;;;;;;18.35;5.88;;;1.50;99.90;;;;;;4963911;28;20046;-84
2021/12/21 12:40:34;;;;;;;11.32;5.97;;;1.50;99.90;;;;;;4960447;28;20038;-83
2021/12/21 12:43:07;;;;;;;16.43;6.87;;;1.50;99.90;;;;;;4994202;28;20038;-84
2021/12/21 12:45:36;;;;;;;19.33;6.35;;;1.50;99.90;;;;;;4993225;28;20060;-83
2021/12/21 12:48:03;;;;;;;12.70;5.47;;;1.60;99.90;;;;;;4976208;28;20099;-84
2021/12/21 12:50:30;;;;;;;12.05;5.15;;;1.70;99.90;;;;;;4960731;28;20441;-83
2021/12/21 12:52:57;;;;;;;13.15;6.03;;;1.70;99.90;;;;;;4993699;28;20100;-83
2021/12/21 12:55:34;;;;;;;12.63;5.20;;;1.70;99.90;;;;;;4992804;28;20059;-83
2021/12/21 12:58:04;;;;;;;15.65;5.95;;;1.80;99.90;;;;;;4974609;28;20525;-83
2021/12/21 13:00:32;;;;;;;12.38;6.35;;;1.90;99.90;;;;;;4974024;28;20051;-83
2021/12/21 13:03:02;;;;;;;16.13;6.63;;;1.90;99.90;;;;;;4972969;28;20054;-83
2021/12/21 13:05:33;;;;;;;16.75;6.30;;;1.90;99.90;;;;;;4974047;28;20046;-83
2021/12/21 13:08:14;;;;;;;17.67;8.10;;;1.80;99.90;;;;;;4958418;28;20054;-83
2021/12/21 13:10:47;;;;;;;15.85;6.88;;;1.80;99.90;;;;;;4989787;28;20506;-83
2021/12/21 13:13:14;;;;;;;13.32;7.40;;;1.80;99.90;;;;;;4974303;28;20137;-83
2021/12/21 13:15:46;;;;;;;15.57;6.88;;;1.80;99.90;;;;;;4973625;28;20035;-83
2021/12/21 13:18:13;;;;;;;15.30;7.38;;;2.20;99.90;;;;;;4973656;28;20082;-83
2021/12/21 13:20:41;;;;;;;12.13;7.18;;;1.70;99.90;;;;;;4957573;28;20125;-83
2021/12/21 13:23:09;;;;;;;12.77;6.68;;;1.70;99.90;;;;;;4973696;28;20104;-82
2021/12/21 13:25:36;;;;;;;15.45;7.68;;;1.60;99.90;;;;;;4957445;28;20796;-83
2021/12/21 13:28:11;;;;;;;17.50;7.63;;;2.60;99.90;;;;;;4974305;28;20057;-83